Terminal Aerodrome Forecast
Issued by NWS Wilmington, OH

Current Version | Previous Version | Graphics & Text | Print | Product List | Glossary On
Versions: 1 2 3 4 5 6 7 8 9 10 11 12 13 14 15 16 17 18 19 20 21 22
000
FTUS41 KILN 262347
TAFCVG
TAF
KCVG 262347Z 2700/2806 22008KT P6SM VCSH SCT025 BKN060
      TEMPO 2700/2701 4SM -SHRA OVC025
     FM270200 23005KT P6SM SCT025 BKN060
     FM271500 18008KT P6SM BKN035
     FM272100 16008KT P6SM VCTS BKN035CB
     FM280300 17008KT P6SM BKN025=

USA.gov is the U.S. government's official web portal to all federal, state and local government web resources and services.